createdAt,value
2023-04-14T00:02:50.857Z,59.98
2023-04-14T00:05:52.411Z,60.01
2023-04-14T00:08:53.828Z,60.00
2023-04-14T00:11:56.461Z,60.03
2023-04-14T00:14:57.881Z,60.08
2023-04-14T00:17:59.324Z,59.98
2023-04-14T00:21:02.379Z,60.01
2023-04-14T00:24:03.984Z,60.01
2023-04-14T00:27:05.609Z,60.00
2023-04-14T00:30:07.387Z,59.90
2023-04-14T00:33:09.140Z,60.04
2023-04-14T00:36:10.561Z,59.96
2023-04-14T00:39:12.009Z,59.99
2023-04-14T00:42:13.383Z,60.06
2023-04-14T00:45:15.195Z,59.96
2023-04-14T00:48:18.287Z,60.04
2023-04-14T00:51:19.708Z,60.02
2023-04-14T00:54:21.383Z,60.07
2023-04-14T00:57:22.838Z,60.13
2023-04-14T01:00:24.261Z,60.18
2023-04-14T01:03:26.251Z,60.27
2023-04-14T01:06:28.193Z,59.95
2023-04-14T01:09:30.016Z,60.19
2023-04-14T01:12:50.836Z,60.25
2023-04-14T01:16:01.004Z,60.27
2023-04-14T01:19:18.021Z,60.21
2023-04-14T01:22:22.218Z,60.23
2023-04-14T01:25:42.432Z,60.31
2023-04-14T01:29:06.675Z,60.28
2023-04-14T01:32:10.131Z,60.38
2023-04-14T01:35:13.345Z,60.39
2023-04-14T01:38:23.725Z,60.31
2023-04-14T01:41:28.505Z,60.34
2023-04-14T01:44:31.239Z,60.39
2023-04-14T01:47:33.610Z,60.37
2023-04-14T01:50:37.081Z,60.46
2023-04-14T01:53:40.009Z,60.36
2023-04-14T01:56:42.119Z,60.42
2023-04-14T01:59:44.670Z,60.57
2023-04-14T02:02:49.069Z,60.65
2023-04-14T02:05:52.309Z,60.72
2023-04-14T02:08:53.799Z,60.57
2023-04-14T02:11:55.755Z,60.63
2023-04-14T02:14:58.836Z,60.58
2023-04-14T02:18:02.602Z,60.52
2023-04-14T02:21:04.206Z,60.55
2023-04-14T02:24:05.806Z,60.59
2023-04-14T02:27:09.078Z,60.54
2023-04-14T02:30:12.570Z,60.57
2023-04-14T02:33:17.161Z,60.55
2023-04-14T02:36:32.454Z,60.56
2023-04-14T02:39:40.245Z,60.54
2023-04-14T02:42:44.904Z,60.56
2023-04-14T02:45:49.028Z,60.54
2023-04-14T02:48:51.707Z,60.55
2023-04-14T02:51:54.316Z,60.62
2023-04-14T02:54:56.783Z,60.59
2023-04-14T02:57:59.645Z,60.63
2023-04-14T03:01:02.583Z,60.76
2023-04-14T03:04:04.540Z,60.74
2023-04-14T03:07:09.276Z,60.84
2023-04-14T03:10:11.849Z,60.65
2023-04-14T03:13:15.325Z,60.73
2023-04-14T03:16:19.041Z,60.74
2023-04-14T03:19:24.751Z,60.64
2023-04-14T03:22:29.490Z,60.67
2023-04-14T03:25:32.821Z,60.56
2023-04-14T03:28:37.813Z,60.67
2023-04-14T03:31:44.311Z,60.78
2023-04-14T03:34:48.679Z,60.77
2023-04-14T03:37:51.736Z,60.91
2023-04-14T03:40:54.949Z,60.91
2023-04-14T03:43:58.614Z,60.91
2023-04-14T03:47:03.471Z,60.94
2023-04-14T03:50:09.156Z,60.81
2023-04-14T03:53:12.618Z,61.01
2023-04-14T03:56:15.517Z,60.99
2023-04-14T03:59:19.112Z,61.06
2023-04-14T04:02:22.242Z,60.96
2023-04-14T04:05:24.113Z,61.11
2023-04-14T04:08:25.718Z,61.07
2023-04-14T04:11:27.765Z,61.00
2023-04-14T04:14:30.353Z,61.04
2023-04-14T04:17:32.454Z,60.99
2023-04-14T04:20:37.195Z,61.08
2023-04-14T04:23:41.675Z,61.11
2023-04-14T04:26:43.938Z,61.10
2023-04-14T04:29:45.677Z,61.07
2023-04-14T04:32:47.333Z,61.09
2023-04-14T04:35:49.068Z,61.16
2023-04-14T04:38:50.742Z,61.25
2023-04-14T04:42:01.441Z,61.24
2023-04-14T04:45:03.022Z,61.23
2023-04-14T04:48:04.848Z,61.17
2023-04-14T04:51:06.299Z,61.21
2023-04-14T04:54:07.886Z,61.22
2023-04-14T04:57:10.453Z,61.17
2023-04-14T05:00:12.674Z,61.20
2023-04-14T05:03:14.085Z,61.15
2023-04-14T05:06:16.492Z,61.19
2023-04-14T05:09:17.894Z,61.15
2023-04-14T05:12:19.279Z,61.06
2023-04-14T05:15:21.308Z,60.99
2023-04-14T05:18:22.673Z,61.02
2023-04-14T05:21:24.120Z,60.95
2023-04-14T05:24:25.530Z,60.88
2023-04-14T05:27:26.999Z,60.76
2023-04-14T05:30:28.405Z,60.69
2023-04-14T05:33:29.861Z,60.66
2023-04-14T05:36:31.686Z,60.30
2023-04-14T05:39:34.346Z,60.36
2023-04-14T05:42:35.807Z,60.30
2023-04-14T05:45:37.188Z,60.11
2023-04-14T05:48:38.780Z,59.97
2023-04-14T05:51:40.635Z,59.89
2023-04-14T05:54:43.195Z,59.70
2023-04-14T05:57:44.830Z,59.67
2023-04-14T06:00:46.352Z,59.67
2023-04-14T06:03:48.022Z,59.51
2023-04-14T06:06:49.617Z,59.59
2023-04-14T06:09:51.363Z,59.46
2023-04-14T06:12:52.737Z,59.38
2023-04-14T06:15:55.953Z,59.32
2023-04-14T06:18:57.341Z,59.39
2023-04-14T06:21:58.742Z,59.32
2023-04-14T06:25:00.684Z,59.27
2023-04-14T06:28:05.394Z,59.27
2023-04-14T06:31:06.772Z,59.27
2023-04-14T06:34:08.163Z,59.26
2023-04-14T06:37:09.539Z,59.23
2023-04-14T06:40:11.283Z,59.14
2023-04-14T06:43:14.119Z,59.13
2023-04-14T06:46:17.221Z,59.19
2023-04-14T06:49:19.879Z,59.24
2023-04-14T06:52:21.285Z,59.26
2023-04-14T06:55:22.668Z,59.37
2023-04-14T06:58:24.534Z,59.27
2023-04-14T07:01:25.983Z,59.31
2023-04-14T07:04:27.403Z,59.29
2023-04-14T07:07:28.847Z,59.37
2023-04-14T07:10:30.395Z,59.33
2023-04-14T07:13:32.293Z,59.36
2023-04-14T07:16:33.769Z,59.43
2023-04-14T07:19:35.220Z,59.32
2023-04-14T07:22:36.637Z,59.51
2023-04-14T07:25:38.159Z,59.50
2023-04-14T07:28:39.525Z,59.40
2023-04-14T07:31:41.155Z,59.55
2023-04-14T07:34:43.973Z,59.60
2023-04-14T07:37:45.618Z,59.59
2023-04-14T07:40:46.988Z,59.59
2023-04-14T07:43:48.358Z,59.72
2023-04-14T07:46:49.710Z,59.66
2023-04-14T07:49:53.041Z,59.84
2023-04-14T07:52:54.507Z,59.82
2023-04-14T07:55:55.993Z,59.91
2023-04-14T07:58:57.385Z,59.98
2023-04-14T08:01:58.868Z,60.05
2023-04-14T08:05:00.546Z,60.06
2023-04-14T08:08:01.988Z,60.09
2023-04-14T08:11:03.378Z,60.06
2023-04-14T08:14:04.862Z,60.15
2023-04-14T08:17:06.224Z,60.11
2023-04-14T08:20:08.093Z,60.05
2023-04-14T08:23:09.488Z,59.77
2023-04-14T08:26:11.561Z,59.95
2023-04-14T08:29:12.927Z,59.99
2023-04-14T08:32:14.264Z,59.95
2023-04-14T08:35:39.581Z,59.89
2023-04-14T08:38:37.644Z,59.97
2023-04-14T08:41:39.574Z,59.99
2023-04-14T08:44:40.913Z,59.90
2023-04-14T08:47:43.366Z,59.89
2023-04-14T08:50:49.309Z,59.87
2023-04-14T08:53:53.025Z,59.83
2023-04-14T08:56:57.395Z,59.84
2023-04-14T08:59:58.938Z,59.87
2023-04-14T09:03:00.783Z,59.86
2023-04-14T09:06:02.690Z,59.77
2023-04-14T09:09:06.804Z,59.91
2023-04-14T09:12:08.395Z,59.65
2023-04-14T09:15:10.130Z,59.95
2023-04-14T09:18:11.924Z,59.97
2023-04-14T09:21:31.187Z,60.08
2023-04-14T09:24:35.164Z,60.08
2023-04-14T09:27:36.988Z,60.00
2023-04-14T09:30:38.623Z,60.01
2023-04-14T09:33:43.269Z,59.99
2023-04-14T09:37:05.201Z,59.92
2023-04-14T09:40:06.844Z,59.86
2023-04-14T09:43:08.330Z,59.88
2023-04-14T09:46:10.585Z,59.97
2023-04-14T09:49:12.069Z,59.93
2023-04-14T09:52:13.416Z,59.75
2023-04-14T09:55:15.931Z,59.75
2023-04-14T09:58:23.013Z,59.58
2023-04-14T10:01:28.502Z,59.79
2023-04-14T10:04:29.992Z,59.66
2023-04-14T10:07:31.757Z,59.63
2023-04-14T10:10:33.187Z,59.55
2023-04-14T10:13:34.584Z,59.62
2023-04-14T10:16:36.194Z,59.50
2023-04-14T10:19:37.894Z,59.47
2023-04-14T10:22:41.334Z,59.48
2023-04-14T10:25:42.895Z,59.49
2023-04-14T10:28:51.329Z,59.41
2023-04-14T10:32:05.289Z,59.39
2023-04-14T10:35:07.071Z,59.33
2023-04-14T10:38:08.861Z,59.44
2023-04-14T10:41:11.482Z,59.27
2023-04-14T10:44:26.241Z,59.27
2023-04-14T10:47:28.055Z,59.04
2023-04-14T10:50:31.929Z,59.25
2023-04-14T10:53:39.295Z,59.25
2023-04-14T10:56:41.339Z,59.27
2023-04-14T10:59:43.251Z,59.24
2023-04-14T11:02:54.378Z,59.22
2023-04-14T11:05:56.031Z,59.21
2023-04-14T11:08:58.142Z,59.24
2023-04-14T11:12:18.195Z,59.09
2023-04-14T11:15:19.607Z,59.23
2023-04-14T11:18:32.505Z,59.21
2023-04-14T11:21:33.874Z,59.16
2023-04-14T11:24:35.305Z,59.23
2023-04-14T11:27:39.444Z,59.30
2023-04-14T11:30:40.840Z,59.31
2023-04-14T11:33:42.535Z,59.45
2023-04-14T11:36:44.254Z,59.45
2023-04-14T11:39:46.295Z,59.51
2023-04-14T11:42:51.167Z,59.71
2023-04-14T11:45:52.680Z,59.69
2023-04-14T11:48:57.123Z,59.61
2023-04-14T11:52:03.955Z,59.64
2023-04-14T11:55:06.392Z,59.72
2023-04-14T11:58:07.862Z,59.59
2023-04-14T12:01:10.558Z,59.56
2023-04-14T12:04:12.484Z,59.56
2023-04-14T12:07:14.713Z,59.73
2023-04-14T12:10:16.337Z,59.76
2023-04-14T12:13:18.736Z,59.80
2023-04-14T12:16:20.624Z,59.91
2023-04-14T12:19:22.051Z,59.85
2023-04-14T12:22:27.662Z,60.08
2023-04-14T12:25:35.499Z,60.01
2023-04-14T12:28:39.032Z,60.26
2023-04-14T12:31:44.048Z,60.11
2023-04-14T12:34:54.975Z,60.12
2023-04-14T12:37:56.689Z,60.09
2023-04-14T12:40:58.193Z,60.04
2023-04-14T12:43:59.582Z,60.09
2023-04-14T12:47:01.502Z,60.07
2023-04-14T12:50:22.290Z,60.09
2023-04-14T12:53:28.418Z,59.88
2023-04-14T12:56:29.818Z,59.77
2023-04-14T12:59:31.595Z,59.89
2023-04-14T13:02:33.347Z,59.79
2023-04-14T13:05:34.922Z,59.81
2023-04-14T13:08:36.261Z,59.81
2023-04-14T13:11:37.614Z,59.68
2023-04-14T13:14:39.193Z,59.66
2023-04-14T13:17:41.008Z,59.54
2023-04-14T13:20:42.451Z,59.49
2023-04-14T13:23:44.273Z,59.57
2023-04-14T13:26:46.149Z,59.57
2023-04-14T13:29:47.517Z,59.55
2023-04-14T13:32:48.972Z,59.44
2023-04-14T13:35:50.989Z,59.49
2023-04-14T13:38:52.806Z,59.32
2023-04-14T13:41:54.256Z,59.35
2023-04-14T13:44:55.662Z,59.31
2023-04-14T13:47:57.068Z,59.17
2023-04-14T13:50:59.423Z,59.13
2023-04-14T13:54:00.864Z,59.09
2023-04-14T13:57:02.680Z,59.21
2023-04-14T14:00:09.253Z,59.11
2023-04-14T14:03:10.883Z,58.87
2023-04-14T14:06:12.437Z,58.97
2023-04-14T14:09:13.810Z,58.98
2023-04-14T14:12:16.939Z,58.87
2023-04-14T14:15:18.393Z,58.91
2023-04-14T14:18:19.770Z,58.85
2023-04-14T14:21:21.127Z,58.95
2023-04-14T14:24:22.520Z,58.85
2023-04-14T14:27:23.909Z,58.77
2023-04-14T14:30:25.578Z,58.85
2023-04-14T14:33:26.963Z,58.81
2023-04-14T14:36:29.341Z,58.94
2023-04-14T14:39:32.493Z,58.91
2023-04-14T14:42:33.924Z,59.06
2023-04-14T14:45:35.355Z,59.06
2023-04-14T14:48:36.834Z,58.98
2023-04-14T14:51:38.384Z,58.96
2023-04-14T14:54:39.700Z,58.87
2023-04-14T14:57:41.848Z,58.77
2023-04-14T15:00:43.293Z,58.88
2023-04-14T15:03:45.639Z,58.81
2023-04-14T15:06:47.193Z,58.85
2023-04-14T15:09:49.279Z,58.91
2023-04-14T15:12:50.696Z,58.73
2023-04-14T15:15:52.054Z,58.81
2023-04-14T15:18:53.576Z,58.82
2023-04-14T15:21:55.002Z,58.76
2023-04-14T15:24:56.456Z,58.83
2023-04-14T15:27:57.824Z,58.85
2023-04-14T15:30:59.191Z,58.89
2023-04-14T15:34:02.567Z,58.76
2023-04-14T15:37:04.128Z,58.86
2023-04-14T15:40:07.848Z,58.89
2023-04-14T15:43:10.385Z,58.88
2023-04-14T15:46:13.315Z,58.81
2023-04-14T15:49:17.237Z,58.78
2023-04-14T15:52:18.594Z,58.82
2023-04-14T15:55:20.193Z,58.75
2023-04-14T15:58:22.260Z,58.81
2023-04-14T16:01:23.730Z,58.83
2023-04-14T16:04:25.461Z,58.73
2023-04-14T16:07:27.941Z,58.73
2023-04-14T16:10:29.544Z,58.70
2023-04-14T16:13:30.896Z,58.70
2023-04-14T16:16:32.572Z,58.76
2023-04-14T16:19:33.917Z,58.74
2023-04-14T16:22:35.300Z,58.84
2023-04-14T16:25:36.780Z,58.70
2023-04-14T16:28:38.250Z,58.71
2023-04-14T16:31:39.650Z,58.68
2023-04-14T16:34:41.157Z,58.60
2023-04-14T16:37:42.504Z,58.50
2023-04-14T16:40:43.941Z,58.67
2023-04-14T16:43:45.277Z,58.57
2023-04-14T16:46:46.745Z,58.55
2023-04-14T16:49:50.195Z,57.62
2023-04-14T16:52:52.310Z,56.42
2023-04-14T16:55:53.663Z,54.69
2023-04-14T16:58:55.311Z,53.54
2023-04-14T17:01:57.441Z,52.85
2023-04-14T17:04:59.182Z,52.02
2023-04-14T17:08:00.613Z,51.64
2023-04-14T17:11:02.181Z,51.26
2023-04-14T17:14:03.747Z,50.86
2023-04-14T17:17:05.389Z,50.74
2023-04-14T17:20:07.526Z,51.13
2023-04-14T17:23:09.343Z,52.13
2023-04-14T17:26:11.032Z,52.83
2023-04-14T17:29:12.525Z,53.18
2023-04-14T17:32:13.957Z,53.43
2023-04-14T17:35:15.376Z,53.73
2023-04-14T17:38:16.882Z,53.88
2023-04-14T17:41:18.746Z,53.93
2023-04-14T17:44:20.272Z,54.03
2023-04-14T17:47:22.011Z,54.20
2023-04-14T17:50:24.031Z,54.57
2023-04-14T17:53:25.871Z,54.62
2023-04-14T17:56:27.678Z,54.83
2023-04-14T17:59:29.164Z,55.06
2023-04-14T18:02:32.862Z,55.17
2023-04-14T18:05:34.412Z,55.27
2023-04-14T18:08:35.787Z,55.35
2023-04-14T18:11:37.343Z,55.56
2023-04-14T18:14:39.449Z,55.56
2023-04-14T18:17:41.553Z,55.83
2023-04-14T18:20:46.777Z,55.89
2023-04-14T18:24:47.916Z,55.94
2023-04-14T18:30:14.153Z,56.30
2023-04-14T18:33:15.508Z,56.57
2023-04-14T18:36:17.039Z,56.65
2023-04-14T18:39:18.790Z,56.67
2023-04-14T18:42:20.362Z,56.76
2023-04-14T18:45:22.037Z,57.01
2023-04-14T18:48:23.745Z,57.40
2023-04-14T18:51:25.833Z,57.73
2023-04-14T18:54:27.198Z,58.16
2023-04-14T18:57:29.130Z,58.50
2023-04-14T19:00:30.744Z,58.65
2023-04-14T19:03:32.368Z,58.58
2023-04-14T19:06:34.200Z,58.36
2023-04-14T19:09:36.117Z,58.28
2023-04-14T19:12:39.681Z,58.29
2023-04-14T19:15:41.700Z,58.31
2023-04-14T19:18:43.219Z,58.08
2023-04-14T19:21:44.589Z,58.03
2023-04-14T19:24:45.986Z,57.88
2023-04-14T19:27:47.427Z,57.79
2023-04-14T19:30:49.001Z,57.84
2023-04-14T19:33:50.442Z,57.76
2023-04-14T19:36:51.951Z,57.79
2023-04-14T19:39:53.322Z,57.69
2023-04-14T19:42:57.779Z,57.74
2023-04-14T19:46:03.454Z,57.62
2023-04-14T19:49:05.539Z,57.69
2023-04-14T19:52:06.914Z,57.55
2023-04-14T19:55:08.529Z,57.52
2023-04-14T19:58:10.551Z,57.75
2023-04-14T20:01:12.846Z,57.67
2023-04-14T20:04:14.290Z,57.80
2023-04-14T20:07:15.719Z,57.83
2023-04-14T20:10:17.284Z,58.03
2023-04-14T20:13:19.966Z,58.11
2023-04-14T20:16:21.954Z,58.26
2023-04-14T20:19:23.931Z,58.19
2023-04-14T20:22:25.756Z,58.19
2023-04-14T20:25:27.169Z,58.25
2023-04-14T20:28:28.675Z,58.25
2023-04-14T20:31:30.625Z,58.38
2023-04-14T20:34:32.982Z,58.37
2023-04-14T20:37:34.794Z,58.30
2023-04-14T20:40:37.099Z,58.51
2023-04-14T20:43:38.507Z,58.55
2023-04-14T20:46:40.432Z,58.78
2023-04-14T20:49:42.737Z,58.79
2023-04-14T20:52:44.660Z,58.92
2023-04-14T20:55:46.183Z,58.69
2023-04-14T20:58:47.590Z,58.64
2023-04-14T21:01:49.096Z,58.62
2023-04-14T21:04:50.677Z,58.53
2023-04-14T21:07:52.057Z,58.45
2023-04-14T21:11:15.962Z,58.53
2023-04-14T21:15:31.397Z,58.51
2023-04-14T21:17:36.509Z,58.46
2023-04-14T21:20:37.914Z,58.38
2023-04-14T21:23:39.322Z,58.34
2023-04-14T21:26:40.951Z,58.31
2023-04-14T21:29:42.393Z,58.37
2023-04-14T21:32:45.337Z,58.23
2023-04-14T21:35:46.747Z,58.20
2023-04-14T21:38:48.150Z,58.20
2023-04-14T21:41:49.553Z,58.17
2023-04-14T21:44:51.098Z,58.19
2023-04-14T21:47:52.574Z,58.20
2023-04-14T21:50:53.982Z,58.27
2023-04-14T21:53:55.699Z,58.28
2023-04-14T21:56:58.145Z,58.23
2023-04-14T21:59:59.555Z,58.08
2023-04-14T22:03:01.099Z,58.05
2023-04-14T22:06:02.674Z,58.14
2023-04-14T22:09:05.901Z,58.12
2023-04-14T22:12:07.419Z,58.16
2023-04-14T22:15:09.045Z,58.08
2023-04-14T22:18:10.698Z,58.20
2023-04-14T22:21:14.312Z,55.77
2023-04-14T22:24:15.693Z,55.35
2023-04-14T22:27:17.189Z,56.67
2023-04-14T22:30:18.604Z,57.37
2023-04-14T22:33:19.989Z,57.70
2023-04-14T22:36:21.520Z,57.83
2023-04-14T22:39:22.922Z,57.91
2023-04-14T22:42:25.804Z,57.98
2023-04-14T22:45:27.677Z,58.04
2023-04-14T22:48:29.109Z,58.08
2023-04-14T22:51:30.512Z,58.03
2023-04-14T22:54:31.932Z,58.02
2023-04-14T22:57:33.405Z,57.94
2023-04-14T23:00:34.789Z,57.95
2023-04-14T23:03:36.442Z,58.04
2023-04-14T23:06:38.300Z,58.04
2023-04-14T23:09:39.706Z,58.04
2023-04-14T23:12:41.123Z,58.21
2023-04-14T23:15:42.643Z,58.04
2023-04-14T23:18:44.057Z,58.10
2023-04-14T23:21:46.904Z,58.08
2023-04-14T23:24:50.133Z,58.11
2023-04-14T23:27:51.585Z,58.08
2023-04-14T23:30:53.036Z,58.14
2023-04-14T23:33:54.464Z,58.04
2023-04-14T23:36:55.924Z,58.10
2023-04-14T23:39:57.460Z,58.01
2023-04-14T23:42:59.501Z,57.98
2023-04-14T23:46:01.269Z,58.06
2023-04-14T23:49:11.132Z,58.15
2023-04-14T23:52:24.087Z,58.09
2023-04-14T23:55:25.473Z,58.20
2023-04-14T23:58:30.124Z,58.26
